Time;durP1;ratioP1;P1;durP2;ratioP2;P2;SDS_P1;SDS_P2;PMS_P1;PMS_P2;Temp;Humidity;BMP_temperature;BMP_pressure;BME280_temperature;BME280_humidity;BME280_pressure;Samples;Min_cycle;Max_cycle;Signal;HPM_P1;HPM_P2
2023/07/28 00:01:36;;;;;;;11.35;5.07;;;18.10;99.90;;;;;;5099817;28;20126;-45
2023/07/28 00:04:06;;;;;;;13.68;4.93;;;18.10;99.90;;;;;;5099738;28;20083;-45
2023/07/28 00:06:33;;;;;;;15.48;5.85;;;18.10;99.90;;;;;;5099938;28;20036;-45
2023/07/28 00:08:58;;;;;;;17.02;5.57;;;18.10;99.90;;;;;;5099999;28;20051;-45
2023/07/28 00:11:24;;;;;;;11.90;5.43;;;18.10;99.90;;;;;;5099978;28;20372;-45
2023/07/28 00:13:50;;;;;;;10.88;5.13;;;18.10;99.90;;;;;;5099749;28;20047;-45
2023/07/28 00:16:16;;;;;;;12.88;5.20;;;18.10;99.90;;;;;;5099599;28;20032;-46
2023/07/28 00:18:41;;;;;;;11.57;5.65;;;18.10;99.90;;;;;;5099441;28;20123;-46
2023/07/28 00:21:07;;;;;;;14.20;4.70;;;18.10;99.90;;;;;;5095989;28;20185;-46
2023/07/28 00:23:33;;;;;;;14.88;5.75;;;18.10;99.90;;;;;;5096679;28;20043;-45
2023/07/28 00:25:58;;;;;;;14.50;5.70;;;18.10;99.90;;;;;;5095402;28;20135;-46
2023/07/28 00:28:24;;;;;;;13.40;5.05;;;18.20;99.90;;;;;;5095306;28;20048;-49
2023/07/28 00:30:50;;;;;;;13.32;5.32;;;18.10;99.90;;;;;;5096384;28;20046;-47
2023/07/28 00:33:17;;;;;;;14.80;6.85;;;18.10;99.90;;;;;;5095597;28;20039;-47
2023/07/28 00:35:43;;;;;;;13.68;5.32;;;18.20;99.90;;;;;;5096405;28;20044;-48
2023/07/28 00:38:09;;;;;;;16.10;6.25;;;18.10;99.90;;;;;;5096325;28;20044;-47
2023/07/28 00:40:37;;;;;;;14.13;4.88;;;18.10;99.90;;;;;;5095143;28;20040;-46
2023/07/28 00:43:03;;;;;;;13.70;5.10;;;18.10;99.90;;;;;;5096203;28;20036;-46
2023/07/28 00:45:30;;;;;;;14.45;5.88;;;18.10;99.90;;;;;;5095026;28;20118;-47
2023/07/28 00:47:59;;;;;;;14.85;5.10;;;18.10;99.90;;;;;;5096228;28;20040;-46
2023/07/28 00:50:26;;;;;;;12.10;4.80;;;18.10;99.90;;;;;;5096120;28;20044;-46
2023/07/28 00:52:52;;;;;;;11.88;4.93;;;18.10;99.90;;;;;;5096142;28;20048;-45
2023/07/28 00:55:18;;;;;;;11.10;4.85;;;18.20;99.90;;;;;;5095963;28;20113;-46
2023/07/28 00:57:44;;;;;;;12.30;4.82;;;18.10;99.90;;;;;;5095971;28;20055;-46
2023/07/28 01:00:10;;;;;;;11.00;5.00;;;18.20;99.90;;;;;;5095790;28;20044;-46
2023/07/28 01:02:37;;;;;;;12.27;4.85;;;18.10;99.90;;;;;;5129172;27;20105;-47
2023/07/28 01:05:03;;;;;;;12.02;5.53;;;18.20;99.90;;;;;;5095884;28;20047;-46
2023/07/28 01:07:49;;;;;;;12.05;4.93;;;18.20;99.90;;;;;;5095647;28;20044;-47
2023/07/28 01:10:35;;;;;;;13.43;4.90;;;18.20;99.90;;;;;;5095608;28;20056;-45
2023/07/28 01:13:01;;;;;;;10.48;5.28;;;18.10;99.90;;;;;;5095861;28;20048;-45
2023/07/28 01:15:27;;;;;;;10.80;5.10;;;18.10;99.90;;;;;;5094659;28;20098;-46
2023/07/28 01:17:52;;;;;;;13.43;6.00;;;18.10;99.90;;;;;;5095479;28;20132;-45
2023/07/28 01:20:18;;;;;;;11.73;4.75;;;18.20;99.90;;;;;;5095409;28;20105;-45
2023/07/28 01:23:06;;;;;;;10.35;5.45;;;18.10;99.90;;;;;;5094364;28;20044;-44
2023/07/28 01:25:56;;;;;;;11.13;5.68;;;18.20;99.90;;;;;;5094260;28;20153;-45
2023/07/28 01:28:22;;;;;;;10.93;5.15;;;18.20;99.90;;;;;;5095753;28;20044;-45
2023/07/28 01:30:48;;;;;;;12.43;5.40;;;18.20;99.90;;;;;;5094493;28;20052;-45
2023/07/28 01:33:14;;;;;;;12.13;5.10;;;18.20;99.90;;;;;;5094831;28;20048;-44
2023/07/28 01:35:40;;;;;;;13.90;4.88;;;18.20;99.90;;;;;;5095018;28;20426;-45
2023/07/28 01:38:06;;;;;;;8.98;4.40;;;18.10;99.90;;;;;;5095210;28;20522;-45
2023/07/28 01:40:32;;;;;;;9.43;4.43;;;18.20;99.90;;;;;;5095177;28;20433;-44
2023/07/28 01:42:58;;;;;;;11.50;5.40;;;18.20;99.90;;;;;;5095162;28;20052;-44
2023/07/28 01:45:23;;;;;;;11.93;4.88;;;18.20;99.90;;;;;;5095008;28;20051;-45
2023/07/28 01:47:49;;;;;;;11.50;5.00;;;18.10;99.90;;;;;;5095030;28;20048;-44
2023/07/28 01:50:15;;;;;;;13.48;5.50;;;18.20;99.90;;;;;;5094807;28;20054;-44
2023/07/28 01:52:40;;;;;;;13.60;5.10;;;18.20;99.90;;;;;;5094946;28;20074;-44
2023/07/28 01:55:07;;;;;;;14.73;5.97;;;18.20;99.90;;;;;;5094844;28;20087;-45
2023/07/28 01:57:39;;;;;;;15.43;5.80;;;18.20;99.90;;;;;;5094842;28;20076;-45
2023/07/28 02:00:05;;;;;;;13.65;5.88;;;18.10;99.90;;;;;;5094764;28;20075;-44
2023/07/28 02:02:31;;;;;;;;;;;18.20;99.90;;;;;;5095101;28;20533;-45
2023/07/28 02:04:57;;;;;;;11.35;5.13;;;18.20;99.90;;;;;;5093728;28;20003;-44
2023/07/28 02:07:22;;;;;;;11.93;5.80;;;18.20;99.90;;;;;;5094601;28;20040;-44
2023/07/28 02:09:48;;;;;;;14.02;5.10;;;18.20;99.90;;;;;;5093153;28;20552;-45
2023/07/28 02:12:14;;;;;;;11.55;4.82;;;18.20;99.90;;;;;;5093457;28;20043;-44
2023/07/28 02:14:39;;;;;;;11.57;4.82;;;18.20;99.90;;;;;;5094378;28;20460;-45
2023/07/28 02:17:05;;;;;;;11.00;4.75;;;18.20;99.90;;;;;;5094324;28;20387;-48
2023/07/28 02:19:31;;;;;;;11.77;4.85;;;18.20;99.90;;;;;;5094816;28;20097;-44
2023/07/28 02:21:57;;;;;;;12.02;4.93;;;18.10;99.90;;;;;;5094443;28;20052;-45
2023/07/28 02:24:22;;;;;;;11.85;5.15;;;18.20;99.90;;;;;;5094313;28;20040;-45
2023/07/28 02:26:48;;;;;;;10.43;4.80;;;18.20;99.90;;;;;;5094431;28;20044;-44
2023/07/28 02:29:14;;;;;;;12.43;5.20;;;18.20;99.90;;;;;;5094301;28;20044;-44
2023/07/28 02:31:39;;;;;;;12.70;4.68;;;18.20;99.90;;;;;;5094058;28;20043;-45
2023/07/28 02:34:05;;;;;;;11.40;5.10;;;18.20;99.90;;;;;;5093945;28;20047;-44
2023/07/28 02:36:31;;;;;;;9.85;4.30;;;18.20;99.90;;;;;;5094483;28;20055;-45
2023/07/28 02:38:57;;;;;;;12.13;5.13;;;18.20;99.90;;;;;;5093233;28;20478;-46
2023/07/28 02:41:22;;;;;;;10.50;5.10;;;18.20;99.90;;;;;;5094056;28;20101;-45
2023/07/28 02:43:48;;;;;;;14.23;5.28;;;18.20;99.90;;;;;;5092619;28;20048;-45
2023/07/28 02:46:14;;;;;;;10.05;4.57;;;18.20;99.90;;;;;;5093931;28;20036;-45
2023/07/28 02:48:39;;;;;;;16.38;5.43;;;18.20;99.90;;;;;;5093745;28;20048;-46
2023/07/28 02:51:05;;;;;;;13.05;5.00;;;18.20;99.90;;;;;;5093970;28;20051;-46
2023/07/28 02:53:30;;;;;;;15.32;5.63;;;18.20;99.90;;;;;;5093874;28;20051;-46
2023/07/28 02:55:56;;;;;;;10.30;4.85;;;18.20;99.90;;;;;;5094158;28;20044;-45
2023/07/28 02:58:23;;;;;;;11.68;4.90;;;18.20;99.90;;;;;;5093890;28;20069;-45
2023/07/28 03:00:51;;;;;;;12.30;5.07;;;18.20;99.90;;;;;;5093991;28;20040;-45
2023/07/28 03:03:17;;;;;;;12.80;5.97;;;18.20;99.90;;;;;;5093573;28;20044;-45
2023/07/28 03:05:42;;;;;;;11.10;5.68;;;18.20;99.90;;;;;;5093791;28;20472;-45
2023/07/28 03:08:08;;;;;;;13.85;5.47;;;18.20;99.90;;;;;;5093847;28;20398;-46
2023/07/28 03:10:34;;;;;;;11.13;5.05;;;18.20;99.90;;;;;;5092410;28;20052;-45
2023/07/28 03:12:59;;;;;;;13.10;5.22;;;18.20;99.90;;;;;;5093586;28;20098;-45
2023/07/28 03:15:25;;;;;;;13.20;5.68;;;18.20;99.90;;;;;;5092535;28;20044;-46
2023/07/28 03:17:51;;;;;;;12.82;5.53;;;18.20;99.90;;;;;;5093503;28;20074;-46
2023/07/28 03:20:17;;;;;;;14.98;5.47;;;18.20;99.90;;;;;;5094252;28;20440;-47
2023/07/28 03:22:43;;;;;;;12.38;5.63;;;18.20;99.90;;;;;;5093695;28;20054;-46
2023/07/28 03:25:09;;;;;;;11.63;5.72;;;18.20;99.90;;;;;;5093665;28;20131;-46
2023/07/28 03:27:35;;;;;;;;;;;18.20;99.90;;;;;;5093904;28;20052;-46
2023/07/28 03:30:01;;;;;;;13.02;5.63;;;18.20;99.90;;;;;;5093550;28;19920;-45
2023/07/28 03:32:27;;;;;;;10.82;5.72;;;18.20;99.90;;;;;;5093492;28;20471;-46
2023/07/28 03:34:52;;;;;;;11.40;5.30;;;18.20;99.90;;;;;;5093812;28;20059;-47
2023/07/28 03:37:19;;;;;;;15.02;6.10;;;18.20;99.90;;;;;;5093517;28;20036;-46
2023/07/28 03:39:44;;;;;;;11.82;5.50;;;18.20;99.90;;;;;;5092563;28;20475;-46
2023/07/28 03:42:10;;;;;;;13.23;6.03;;;18.20;99.90;;;;;;5093558;28;20051;-47
2023/07/28 03:44:41;;;;;;;13.07;5.95;;;18.20;99.90;;;;;;5093372;28;20118;-47
2023/07/28 03:47:07;;;;;;;11.57;5.60;;;18.20;99.90;;;;;;5092165;28;20090;-47
2023/07/28 03:49:33;;;;;;;12.40;6.07;;;18.20;99.90;;;;;;5075565;28;20091;-46
2023/07/28 03:51:58;;;;;;;12.80;6.40;;;18.20;99.90;;;;;;5093384;28;20394;-46
2023/07/28 03:54:24;;;;;;;12.45;6.00;;;18.10;99.90;;;;;;5094552;28;20044;-46
2023/07/28 03:56:50;;;;;;;12.38;5.10;;;18.20;99.90;;;;;;5096201;28;20044;-47
2023/07/28 03:59:15;;;;;;;10.77;5.47;;;18.20;99.90;;;;;;5097026;28;20083;-45
2023/07/28 04:01:41;;;;;;;11.30;5.20;;;18.20;99.90;;;;;;5096804;28;20430;-46
2023/07/28 04:04:07;;;;;;;11.63;4.95;;;18.20;99.90;;;;;;5096978;28;20048;-46
2023/07/28 04:06:43;;;;;;;11.55;4.50;;;18.20;99.90;;;;;;5097021;28;20050;-46
2023/07/28 04:09:11;;;;;;;13.13;5.55;;;18.20;99.90;;;;;;5095671;28;20059;-45
2023/07/28 04:11:37;;;;;;;12.63;5.97;;;18.20;99.90;;;;;;5096835;28;20048;-46
2023/07/28 04:14:03;;;;;;;15.75;5.75;;;18.10;99.90;;;;;;5095509;28;20055;-47
2023/07/28 04:16:29;;;;;;;12.23;5.22;;;18.20;99.90;;;;;;5097491;28;20387;-47
2023/07/28 04:18:54;;;;;;;12.63;5.05;;;18.20;99.90;;;;;;5095625;28;20461;-47
2023/07/28 04:21:20;;;;;;;9.18;4.60;;;18.20;99.90;;;;;;5097042;28;20044;-48
2023/07/28 04:23:46;;;;;;;9.60;4.15;;;18.20;99.90;;;;;;5096704;28;20109;-47
2023/07/28 04:26:12;;;;;;;15.10;4.82;;;18.20;99.90;;;;;;5095261;28;20059;-47
2023/07/28 04:28:38;;;;;;;10.38;4.45;;;18.20;99.90;;;;;;5096469;28;20486;-47
2023/07/28 04:31:03;;;;;;;9.60;4.53;;;18.20;99.90;;;;;;5096571;28;20043;-46
2023/07/28 04:33:29;;;;;;;13.02;4.43;;;18.20;99.90;;;;;;5096976;28;20061;-47
2023/07/28 04:35:54;;;;;;;8.18;4.25;;;18.20;99.90;;;;;;5096495;28;20479;-47
2023/07/28 04:38:20;;;;;;;9.90;4.30;;;18.20;99.90;;;;;;5095158;28;20448;-47
2023/07/28 04:40:46;;;;;;;8.55;4.25;;;18.20;99.90;;;;;;5096353;28;20048;-47
2023/07/28 04:43:11;;;;;;;8.38;3.45;;;18.20;99.90;;;;;;5096043;28;20046;-46
2023/07/28 04:45:37;;;;;;;10.43;4.15;;;18.20;99.90;;;;;;5096278;28;20048;-48
2023/07/28 04:48:03;;;;;;;14.68;4.30;;;18.20;99.90;;;;;;5096417;28;20085;-47
2023/07/28 04:50:29;;;;;;;12.20;3.85;;;18.20;99.90;;;;;;5096253;28;20052;-46
2023/07/28 04:52:55;;;;;;;11.00;4.25;;;18.20;99.90;;;;;;5095179;28;20526;-48
2023/07/28 04:55:20;;;;;;;11.27;4.80;;;18.20;99.90;;;;;;5095899;28;20051;-47
2023/07/28 04:57:46;;;;;;;10.85;4.13;;;18.20;99.90;;;;;;5096107;28;20040;-47
2023/07/28 05:00:12;;;;;;;13.05;4.28;;;18.20;99.90;;;;;;5095059;28;20048;-47
2023/07/28 05:02:38;;;;;;;9.88;4.32;;;18.20;99.90;;;;;;5095997;28;20086;-47
2023/07/28 05:05:04;;;;;;;10.05;4.57;;;18.20;99.90;;;;;;5095663;28;20430;-46
2023/07/28 05:07:30;;;;;;;10.77;4.28;;;18.20;99.90;;;;;;5095827;28;20043;-47
2023/07/28 05:09:56;;;;;;;7.63;4.30;;;18.20;99.90;;;;;;5095973;28;20479;-47
2023/07/28 05:12:21;;;;;;;8.13;4.20;;;18.20;99.90;;;;;;5095640;28;20105;-47
2023/07/28 05:14:47;;;;;;;9.30;4.47;;;18.20;99.90;;;;;;5095750;28;20479;-46
2023/07/28 05:17:13;;;;;;;8.35;4.30;;;18.30;99.90;;;;;;5095719;28;20044;-47
2023/07/28 05:19:38;;;;;;;8.77;4.22;;;18.30;99.90;;;;;;5095879;28;20084;-47
2023/07/28 05:22:06;;;;;;;8.85;3.85;;;18.30;99.90;;;;;;5095922;28;20044;-48
2023/07/28 05:24:33;;;;;;;10.15;3.97;;;18.30;99.90;;;;;;5095373;28;20052;-46
2023/07/28 05:26:58;;;;;;;8.05;3.90;;;18.30;99.90;;;;;;5095609;28;20044;-47
2023/07/28 05:29:24;;;;;;;10.73;4.40;;;18.30;99.90;;;;;;5095186;28;20381;-47
2023/07/28 05:31:50;;;;;;;8.60;4.15;;;18.30;99.90;;;;;;5094523;28;20153;-47
2023/07/28 05:34:16;;;;;;;8.45;3.90;;;18.30;99.90;;;;;;5094234;28;20127;-47
2023/07/28 05:36:42;;;;;;;8.05;3.90;;;18.30;99.90;;;;;;5094995;28;20043;-45
2023/07/28 05:39:08;;;;;;;9.23;4.05;;;18.30;99.90;;;;;;5095188;28;20430;-47
2023/07/28 05:41:33;;;;;;;10.73;3.80;;;18.30;99.90;;;;;;5095069;28;20059;-47
2023/07/28 05:43:59;;;;;;;11.15;3.90;;;18.30;99.90;;;;;;5094055;28;20044;-47
2023/07/28 05:46:25;;;;;;;8.02;3.88;;;18.30;99.90;;;;;;5093933;28;20076;-47
2023/07/28 05:48:50;;;;;;;6.32;3.78;;;18.30;99.90;;;;;;5094971;28;20056;-46
2023/07/28 05:51:16;;;;;;;10.32;4.95;;;18.30;99.90;;;;;;5094980;28;20040;-47
2023/07/28 05:53:42;;;;;;;8.43;3.67;;;18.30;99.90;;;;;;5094784;28;20087;-47
2023/07/28 05:56:07;;;;;;;9.20;4.38;;;18.30;99.90;;;;;;5094775;28;20066;-50
2023/07/28 05:58:33;;;;;;;6.72;4.05;;;18.30;99.90;;;;;;5094619;28;20044;-48
2023/07/28 06:00:59;;;;;;;8.50;4.35;;;18.30;99.90;;;;;;5094563;28;20044;-47
2023/07/28 06:03:26;;;;;;;7.78;4.32;;;18.30;99.90;;;;;;5093608;28;20132;-47
2023/07/28 06:05:52;;;;;;;8.45;4.22;;;18.30;99.90;;;;;;5093657;28;20468;-47
2023/07/28 06:08:17;;;;;;;9.48;3.72;;;18.30;99.90;;;;;;5094812;28;20050;-48
2023/07/28 06:10:43;;;;;;;7.93;3.95;;;18.30;99.90;;;;;;5094982;28;20139;-47
2023/07/28 06:13:09;;;;;;;8.45;4.15;;;18.20;99.90;;;;;;5094589;28;20059;-49
2023/07/28 06:15:34;;;;;;;12.35;4.47;;;18.30;99.90;;;;;;5094749;28;20452;-47
2023/07/28 06:18:02;;;;;;;7.63;4.50;;;18.30;99.90;;;;;;5094294;28;20044;-48
2023/07/28 06:20:29;;;;;;;7.10;3.63;;;18.30;99.90;;;;;;5094447;28;20055;-48
2023/07/28 06:22:55;;;;;;;8.00;3.92;;;18.30;99.90;;;;;;5093264;28;20048;-48
2023/07/28 06:25:21;;;;;;;9.68;4.43;;;18.30;99.90;;;;;;5093400;28;20364;-48
2023/07/28 06:27:47;;;;;;;7.18;4.43;;;18.30;99.90;;;;;;5094162;28;20047;-46
2023/07/28 06:30:13;;;;;;;10.85;4.55;;;18.30;99.90;;;;;;5094362;28;20047;-47
2023/07/28 06:32:38;;;;;;;9.18;4.60;;;18.30;99.90;;;;;;5094210;28;20432;-46
2023/07/28 06:35:06;;;;;;;9.50;4.68;;;18.40;99.90;;;;;;5094274;28;20044;-47
2023/07/28 06:37:33;;;;;;;8.18;4.00;;;18.40;99.90;;;;;;5094094;28;20075;-48
2023/07/28 06:39:59;;;;;;;7.05;4.05;;;18.40;99.90;;;;;;5093195;28;20399;-47
2023/07/28 06:42:26;;;;;;;8.02;4.53;;;18.40;99.90;;;;;;5094164;28;20052;-47
2023/07/28 06:44:51;;;;;;;8.30;5.28;;;18.50;99.90;;;;;;5094159;28;20394;-46
2023/07/28 06:47:18;;;;;;;7.75;4.82;;;18.50;99.90;;;;;;5094231;28;20044;-48
2023/07/28 06:49:44;;;;;;;;;;;18.50;99.90;;;;;;5094347;28;20047;-46
2023/07/28 06:52:10;;;;;;;7.53;4.30;;;18.50;99.90;;;;;;5093896;28;20316;-48
2023/07/28 06:54:36;;;;;;;9.13;4.47;;;18.50;99.90;;;;;;5093892;28;20044;-46
2023/07/28 06:57:02;;;;;;;10.60;4.95;;;18.50;99.90;;;;;;5093675;28;20048;-48
2023/07/28 06:59:28;;;;;;;8.40;4.45;;;18.50;99.90;;;;;;5094032;28;20126;-48
2023/07/28 07:01:53;;;;;;;9.60;5.20;;;18.50;99.90;;;;;;5093781;28;20048;-47
2023/07/28 07:04:19;;;;;;;8.93;4.72;;;18.50;99.90;;;;;;5094087;28;20467;-48
2023/07/28 07:06:45;;;;;;;8.73;4.45;;;18.50;99.90;;;;;;5093643;28;20040;-46
2023/07/28 07:09:14;;;;;;;8.43;4.60;;;18.60;99.90;;;;;;5093663;28;20494;-46
2023/07/28 07:11:40;;;;;;;8.75;4.80;;;18.60;99.90;;;;;;5094285;28;20044;-46
2023/07/28 07:14:06;;;;;;;10.52;5.32;;;18.60;99.90;;;;;;5094180;28;20127;-47
2023/07/28 07:16:32;;;;;;;8.02;4.60;;;18.60;99.90;;;;;;5093664;28;20466;-46
2023/07/28 07:18:58;;;;;;;8.50;4.28;;;18.60;99.90;;;;;;5093701;28;20087;-46
2023/07/28 07:21:23;;;;;;;8.50;5.00;;;18.60;99.90;;;;;;5093623;28;20094;-46
2023/07/28 07:23:49;;;;;;;10.15;4.70;;;18.60;99.90;;;;;;5093464;28;20070;-46
2023/07/28 07:26:15;;;;;;;8.63;4.70;;;18.70;99.90;;;;;;5093578;28;20036;-46
2023/07/28 07:28:40;;;;;;;7.07;3.80;;;18.70;99.90;;;;;;5094624;28;20043;-47
2023/07/28 07:31:15;;;;;;;7.55;3.75;;;18.70;99.90;;;;;;5097686;28;20171;-47
2023/07/28 07:33:42;;;;;;;6.35;3.30;;;18.70;99.90;;;;;;5097549;28;20055;-47
2023/07/28 07:36:18;;;;;;;8.40;3.72;;;18.70;99.90;;;;;;5079780;28;20470;-47
2023/07/28 07:38:48;;;;;;;;;;;18.80;99.90;;;;;;5098043;28;20056;-46
2023/07/28 07:41:20;;;;;;;6.85;3.90;;;18.80;99.90;;;;;;5097580;28;19920;-47
2023/07/28 07:43:52;;;;;;;7.50;4.13;;;18.80;99.90;;;;;;5097677;28;20433;-46
2023/07/28 07:46:19;;;;;;;11.15;4.47;;;18.90;99.90;;;;;;5096271;28;20063;-47
2023/07/28 07:48:45;;;;;;;7.88;3.05;;;18.90;99.90;;;;;;5097295;28;20052;-47
2023/07/28 07:51:11;;;;;;;6.50;3.17;;;18.90;99.90;;;;;;5097060;28;20470;-47
2023/07/28 07:53:37;;;;;;;7.30;3.63;;;19.00;99.90;;;;;;5096231;28;20083;-47
2023/07/28 07:56:07;;;;;;;7.03;3.70;;;19.00;99.90;;;;;;5097150;28;20115;-48
2023/07/28 07:58:32;;;;;;;7.47;3.67;;;19.10;99.90;;;;;;5097239;28;20126;-46
2023/07/28 08:00:58;;;;;;;6.85;3.22;;;19.10;99.90;;;;;;5097279;28;20118;-47
2023/07/28 08:03:24;;;;;;;5.47;2.75;;;19.10;99.90;;;;;;5096998;28;20449;-48
2023/07/28 08:05:51;;;;;;;5.45;2.85;;;19.10;99.90;;;;;;5096877;28;20486;-45
2023/07/28 08:08:19;;;;;;;5.55;2.90;;;19.10;99.90;;;;;;5096041;28;20493;-47
2023/07/28 08:10:48;;;;;;;5.18;2.95;;;19.20;99.90;;;;;;5096739;28;20109;-47
2023/07/28 08:13:14;;;;;;;7.10;3.50;;;19.20;99.90;;;;;;5095666;28;20051;-47
2023/07/28 08:15:44;;;;;;;5.97;3.00;;;19.30;99.90;;;;;;5095676;28;20040;-46
2023/07/28 08:18:11;;;;;;;8.25;3.30;;;19.30;99.90;;;;;;5096528;28;20059;-46
2023/07/28 08:20:37;;;;;;;5.57;3.08;;;19.40;99.90;;;;;;5096800;28;20055;-46
2023/07/28 08:23:02;;;;;;;7.10;3.63;;;19.40;99.90;;;;;;5096839;28;20101;-45
2023/07/28 08:25:28;;;;;;;6.85;3.67;;;19.40;99.90;;;;;;5096536;28;20097;-46
2023/07/28 08:27:54;;;;;;;6.18;3.50;;;19.40;99.90;;;;;;5096683;28;20048;-46
2023/07/28 08:30:19;;;;;;;7.47;4.05;;;19.30;99.90;;;;;;5096476;28;20039;-46
2023/07/28 08:32:45;;;;;;;6.68;3.53;;;19.30;99.90;;;;;;5096507;28;20052;-47
2023/07/28 08:35:11;;;;;;;6.85;3.53;;;19.40;99.90;;;;;;5096575;28;20477;-45
2023/07/28 08:37:37;;;;;;;5.93;3.28;;;19.40;99.90;;;;;;5096894;28;20047;-46
2023/07/28 08:40:04;;;;;;;6.07;3.10;;;19.40;99.90;;;;;;5095853;28;20036;-46
2023/07/28 08:42:35;;;;;;;5.97;3.10;;;19.40;99.90;;;;;;5096328;28;20491;-45
2023/07/28 08:45:02;;;;;;;6.15;3.40;;;19.40;99.90;;;;;;5096590;28;20071;-46
2023/07/28 08:47:27;;;;;;;6.65;3.20;;;19.50;99.90;;;;;;5095950;28;20043;-46
2023/07/28 08:49:53;;;;;;;5.22;2.60;;;19.40;99.90;;;;;;5096221;28;20048;-45
2023/07/28 08:52:19;;;;;;;5.25;3.08;;;19.50;99.90;;;;;;5095275;28;20048;-46
2023/07/28 08:54:44;;;;;;;6.72;3.63;;;19.50;99.90;;;;;;5096151;28;20127;-47
2023/07/28 08:57:10;;;;;;;6.13;3.38;;;19.40;99.90;;;;;;5096022;28;20403;-46
2023/07/28 08:59:41;;;;;;;7.47;3.47;;;19.50;99.90;;;;;;5096025;28;20040;-46
2023/07/28 09:02:10;;;;;;;7.28;3.40;;;19.50;99.90;;;;;;5095845;28;20097;-46
2023/07/28 09:04:35;;;;;;;7.10;3.63;;;19.50;99.90;;;;;;5095385;28;20437;-45
2023/07/28 09:07:05;;;;;;;6.15;3.47;;;19.60;99.90;;;;;;5095758;28;20036;-44
2023/07/28 09:09:32;;;;;;;5.13;2.92;;;19.60;99.90;;;;;;5095717;28;20113;-44
2023/07/28 09:12:00;;;;;;;6.10;3.40;;;19.70;99.90;;;;;;5095942;28;20047;-46
2023/07/28 09:14:25;;;;;;;6.43;3.15;;;19.70;99.90;;;;;;5095599;28;20044;-45
2023/07/28 09:16:52;;;;;;;6.10;2.72;;;19.70;99.90;;;;;;5095427;28;20036;-45
2023/07/28 09:19:19;;;;;;;;;;;19.70;99.90;;;;;;5096028;28;20098;-44
2023/07/28 09:21:46;;;;;;;4.93;2.92;;;19.70;99.90;;;;;;5095593;28;19924;-45
2023/07/28 09:24:13;;;;;;;4.47;2.50;;;19.70;99.90;;;;;;5095465;28;20083;-45
2023/07/28 09:26:40;;;;;;;5.22;3.03;;;19.80;99.90;;;;;;5095390;28;20040;-44
2023/07/28 09:29:17;;;;;;;5.78;3.20;;;19.80;99.90;;;;;;5095420;28;20052;-46
2023/07/28 09:31:48;;;;;;;5.57;3.20;;;19.80;99.90;;;;;;5095401;28;20040;-45
2023/07/28 09:34:24;;;;;;;5.00;2.78;;;19.80;99.90;;;;;;5095502;28;20127;-44
2023/07/28 09:36:50;;;;;;;6.28;3.45;;;19.80;99.90;;;;;;5095624;28;20035;-44
2023/07/28 09:39:17;;;;;;;4.85;2.75;;;19.80;99.90;;;;;;5095124;28;20483;-45
2023/07/28 09:41:46;;;;;;;5.88;3.22;;;19.80;99.90;;;;;;5095213;28;20093;-44
2023/07/28 09:44:12;;;;;;;5.00;2.92;;;19.80;99.90;;;;;;5095195;28;20044;-44
2023/07/28 09:46:50;;;;;;;6.85;3.15;;;19.80;99.90;;;;;;5094965;28;20040;-48
2023/07/28 09:49:39;;;;;;;6.65;3.08;;;19.80;99.90;;;;;;5094226;28;20399;-44
2023/07/28 09:52:09;;;;;;;5.30;2.60;;;19.80;99.90;;;;;;5093936;28;20047;-44
2023/07/28 09:54:39;;;;;;;6.00;3.03;;;19.80;99.90;;;;;;5093794;28;20048;-45
2023/07/28 09:57:13;;;;;;;4.95;2.75;;;19.90;99.90;;;;;;5095404;28;20080;-45
2023/07/28 09:59:45;;;;;;;5.65;2.80;;;20.00;99.90;;;;;;5094933;28;20051;-45
2023/07/28 10:02:10;;;;;;;5.88;2.80;;;20.10;99.90;;;;;;5095188;28;20420;-44
2023/07/28 10:04:37;;;;;;;4.53;2.38;;;20.10;99.90;;;;;;5094563;28;20043;-46
2023/07/28 10:07:04;;;;;;;5.22;2.90;;;20.20;99.90;;;;;;5094745;28;20044;-44
2023/07/28 10:09:33;;;;;;;4.55;2.47;;;20.20;99.90;;;;;;5094580;28;20066;-45
2023/07/28 10:12:00;;;;;;;4.70;2.25;;;20.30;99.90;;;;;;5094973;28;20052;-45
2023/07/28 10:14:31;;;;;;;3.72;1.88;;;20.30;99.90;;;;;;5094478;28;20090;-45
2023/07/28 10:16:58;;;;;;;3.80;2.10;;;20.30;99.90;;;;;;5093364;28;20055;-45
2023/07/28 10:19:27;;;;;;;4.22;2.20;;;20.30;99.90;;;;;;5094251;28;20087;-46
2023/07/28 10:22:08;;;;;;;4.38;2.00;;;20.40;99.90;;;;;;5094291;28;20513;-45
2023/07/28 10:25:00;;;;;;;5.07;2.28;;;20.40;99.90;;;;;;5094866;28;20118;-44
2023/07/28 10:27:31;;;;;;;4.13;2.25;;;20.50;99.90;;;;;;5093190;28;20040;-45
2023/07/28 10:30:03;;;;;;;3.63;1.75;;;20.50;99.90;;;;;;5094395;28;20051;-46
2023/07/28 10:32:29;;;;;;;4.32;1.75;;;20.60;99.90;;;;;;5094590;28;20048;-45
2023/07/28 10:35:06;;;;;;;3.40;1.83;;;20.70;99.90;;;;;;5094286;28;20040;-45
2023/07/28 10:37:31;;;;;;;3.78;2.00;;;20.70;99.90;;;;;;5094395;28;20098;-46
2023/07/28 10:40:31;;;;;;;3.65;1.80;;;20.70;99.90;;;;;;5094025;28;20039;-45
2023/07/28 10:42:58;;;;;;;3.80;1.60;;;20.80;99.90;;;;;;5094208;28;20460;-45
2023/07/28 10:45:26;;;;;;;3.35;1.77;;;20.80;99.90;;;;;;5094034;28;20074;-45
2023/07/28 10:47:55;;;;;;;2.35;1.33;;;20.80;99.90;;;;;;5093976;28;20044;-46
2023/07/28 10:50:21;;;;;;;4.35;1.95;;;20.80;99.90;;;;;;5093937;28;20040;-46
2023/07/28 10:52:47;;;;;;;4.38;1.77;;;20.80;99.90;;;;;;5093949;28;20503;-45
2023/07/28 10:55:16;;;;;;;4.88;2.35;;;20.80;99.90;;;;;;5094065;28;20052;-48
2023/07/28 10:57:44;;;;;;;4.93;2.45;;;20.80;99.90;;;;;;5094231;28;20482;-46
2023/07/28 11:00:12;;;;;;;4.80;2.28;;;21.00;99.90;;;;;;5093767;28;20433;-46
2023/07/28 11:02:49;;;;;;;4.65;2.30;;;21.20;99.90;;;;;;5093772;28;20052;-46
2023/07/28 11:05:29;;;;;;;5.03;2.20;;;21.20;99.90;;;;;;5093375;28;20040;-45
2023/07/28 11:07:59;;;;;;;4.32;2.05;;;21.30;99.90;;;;;;5094193;28;20039;-46
2023/07/28 11:10:25;;;;;;;5.95;1.90;;;21.30;99.90;;;;;;5093487;28;20068;-45
2023/07/28 11:12:52;;;;;;;4.43;1.70;;;21.30;99.90;;;;;;5093924;28;20044;-46
2023/07/28 11:15:19;;;;;;;3.50;1.55;;;21.30;99.90;;;;;;5093639;28;20052;-46
2023/07/28 11:17:48;;;;;;;3.33;1.33;;;21.30;99.90;;;;;;5093547;28;20036;-45
2023/07/28 11:20:21;;;;;;;3.50;2.03;;;21.40;99.90;;;;;;5093748;28;20047;-45
2023/07/28 11:22:56;;;;;;;4.15;2.03;;;21.40;99.90;;;;;;5093700;28;20048;-45
2023/07/28 11:25:23;;;;;;;3.50;1.80;;;21.40;99.90;;;;;;5093523;28;20487;-47
2023/07/28 11:27:50;;;;;;;4.45;1.83;;;21.50;99.90;;;;;;5093587;28;20047;-45
2023/07/28 11:30:18;;;;;;;2.90;1.40;;;21.50;99.90;;;;;;5093557;28;20173;-46
2023/07/28 11:32:45;;;;;;;3.63;1.63;;;21.70;99.90;;;;;;5092501;28;20145;-45
2023/07/28 11:35:13;;;;;;;2.58;1.40;;;21.90;99.90;;;;;;5093512;28;20044;-45
2023/07/28 11:37:40;;;;;;;2.97;1.20;;;22.00;99.90;;;;;;5093283;28;20495;-47
2023/07/28 11:40:08;;;;;;;2.55;1.20;;;22.10;99.90;;;;;;5093375;28;20054;-45
2023/07/28 11:42:54;;;;;;;4.18;1.55;;;22.10;99.90;;;;;;5093442;28;20487;-45
2023/07/28 11:45:22;;;;;;;2.22;1.02;;;22.20;99.90;;;;;;5093442;28;20048;-46
2023/07/28 11:47:57;;;;;;;3.17;1.40;;;22.20;99.90;;;;;;5093272;28;20054;-47
2023/07/28 11:50:25;;;;;;;2.90;1.00;;;22.30;99.90;;;;;;5093451;28;20044;-47
2023/07/28 11:52:50;;;;;;;3.45;1.10;;;22.50;99.90;;;;;;5093238;28;20052;-47
2023/07/28 11:55:16;;;;;;;3.13;1.20;;;22.60;99.90;;;;;;5093111;28;20067;-46
2023/07/28 11:57:43;;;;;;;2.95;1.48;;;22.70;99.90;;;;;;5093418;28;20260;-47
2023/07/28 12:00:09;;;;;;;3.05;1.40;;;22.80;99.90;;;;;;5093313;28;20544;-47
2023/07/28 12:02:35;;;;;;;2.55;1.38;;;22.80;99.90;;;;;;5093519;28;20040;-47
2023/07/28 12:05:01;;;;;;;2.92;1.15;;;22.80;99.90;;;;;;5093250;28;20505;-46
2023/07/28 12:07:31;;;;;;;2.25;1.30;;;22.90;99.90;;;;;;5093127;28;20040;-46
2023/07/28 12:10:01;;;;;;;2.50;1.23;;;22.90;99.90;;;;;;5093034;28;20063;-47
2023/07/28 12:12:29;;;;;;;3.67;1.30;;;22.90;99.90;;;;;;5093364;28;20063;-46
2023/07/28 12:14:58;;;;;;;2.25;0.95;;;22.90;99.90;;;;;;5093252;28;20047;-45
2023/07/28 12:17:28;;;;;;;2.00;1.00;;;23.00;99.90;;;;;;5096678;28;20044;-48
2023/07/28 12:20:11;;;;;;;1.75;0.85;;;23.10;99.90;;;;;;5096775;28;20040;-47
2023/07/28 12:22:37;;;;;;;1.77;0.80;;;23.20;99.90;;;;;;5096940;28;20047;-48
2023/07/28 12:25:04;;;;;;;2.78;0.90;;;23.10;99.90;;;;;;5096701;28;20108;-47
2023/07/28 12:27:30;;;;;;;2.15;1.00;;;23.20;99.90;;;;;;5096563;28;20059;-47
2023/07/28 12:29:56;;;;;;;1.58;0.70;;;23.30;99.90;;;;;;5095903;28;20058;-49
2023/07/28 12:32:22;;;;;;;;;;;23.40;99.90;;;;;;5096832;28;20044;-45
2023/07/28 12:34:51;;;;;;;1.85;0.90;;;23.40;99.90;;;;;;5096401;28;19928;-46
2023/07/28 12:37:17;;;;;;;2.42;0.82;;;23.40;99.90;;;;;;5096492;28;20044;-47
2023/07/28 12:39:43;;;;;;;2.78;1.13;;;23.40;99.90;;;;;;5096501;28;20394;-47
2023/07/28 12:42:09;;;;;;;;;;;23.30;99.90;;;;;;5096806;28;20059;-47
2023/07/28 12:44:36;;;;;;;2.42;1.13;;;23.30;99.90;;;;;;5096271;28;20364;-46
2023/07/28 12:47:02;;;;;;;2.95;1.30;;;23.30;99.90;;;;;;5096073;28;20055;-48